Time;durP1;ratioP1;P1;durP2;ratioP2;P2;SDS_P1;SDS_P2;PMS_P1;PMS_P2;Temp;Humidity;BMP_temperature;BMP_pressure;BME280_temperature;BME280_humidity;BME280_pressure;Samples;Min_cycle;Max_cycle;Signal;HPM_P1;HPM_P2
2023/10/19 00:00:40;;;;;;;8.77;7.27;;;7.60;99.90;;;;;;4998733;28;20241;-94
2023/10/19 00:03:07;;;;;;;11.17;7.53;;;7.50;99.90;;;;;;4998597;28;20190;-94
2023/10/19 00:05:33;;;;;;;10.17;7.93;;;7.60;99.90;;;;;;4998212;28;20214;-91
2023/10/19 00:08:05;;;;;;;13.77;8.37;;;7.60;99.90;;;;;;4997859;28;20203;-95
2023/10/19 00:10:36;;;;;;;10.80;8.20;;;7.60;99.90;;;;;;4998308;28;20633;-95
2023/10/19 00:13:04;;;;;;;11.77;8.30;;;7.60;99.90;;;;;;4998409;28;20167;-96
2023/10/19 00:15:48;;;;;;;15.83;8.20;;;7.60;99.90;;;;;;4998642;28;20302;-96
2023/10/19 00:23:13;;;;;;;12.70;8.20;;;7.60;99.90;;;;;;5016018;28;20235;-94
2023/10/19 00:25:50;;;;;;;10.33;8.03;;;7.50;99.90;;;;;;4998484;28;20266;-96
2023/10/19 00:28:19;;;;;;;12.00;8.50;;;7.50;99.90;;;;;;4998606;28;20605;-93
2023/10/19 00:30:46;;;;;;;14.43;9.13;;;7.40;99.90;;;;;;5016742;28;20193;-92
2023/10/19 00:33:19;;;;;;;13.93;8.80;;;7.50;99.90;;;;;;4999734;28;20514;-96
2023/10/19 00:36:08;;;;;;;12.17;9.00;;;7.40;99.90;;;;;;5000252;28;20210;-95
2023/10/19 00:41:11;;;;;;;13.23;9.50;;;7.40;99.90;;;;;;5018227;28;20188;-95
2023/10/19 00:44:10;;;;;;;11.80;8.30;;;7.40;99.90;;;;;;5000368;28;20633;-91
2023/10/19 00:49:12;;;;;;;13.43;9.50;;;7.40;99.90;;;;;;5016738;28;20163;-96
2023/10/19 00:54:35;;;;;;;17.07;9.37;;;7.40;99.90;;;;;;5016519;28;20175;-93
2023/10/19 00:57:07;;;;;;;15.63;10.43;;;7.40;99.90;;;;;;5001155;28;20176;-95
2023/10/19 00:59:42;;;;;;;13.70;9.50;;;7.40;99.90;;;;;;4999198;28;20186;-96
2023/10/19 01:02:19;;;;;;;11.47;9.40;;;7.40;99.90;;;;;;4999268;28;20330;-96
2023/10/19 01:04:55;;;;;;;10.90;9.53;;;7.30;99.90;;;;;;4997657;28;20707;-93
2023/10/19 01:07:29;;;;;;;13.47;10.10;;;7.30;99.90;;;;;;4997650;28;20274;-94
2023/10/19 01:10:00;;;;;;;13.13;10.00;;;7.30;99.90;;;;;;4999563;28;20221;-94
2023/10/19 01:15:16;;;;;;;19.43;10.53;;;7.30;99.90;;;;;;5020167;28;20237;-93
2023/10/19 01:17:56;;;;;;;13.13;10.30;;;7.30;99.90;;;;;;5002230;28;20244;-95
2023/10/19 01:31:08;;;;;;;15.63;10.53;;;7.30;99.90;;;;;;5019897;28;20183;-93
2023/10/19 01:33:37;;;;;;;13.93;10.70;;;7.30;99.90;;;;;;5001136;28;20179;-92
2023/10/19 01:36:10;;;;;;;18.67;11.00;;;7.20;99.90;;;;;;5002542;28;20270;-94
2023/10/19 01:38:36;;;;;;;13.33;10.23;;;7.20;99.90;;;;;;5000928;28;20175;-94
2023/10/19 01:41:08;;;;;;;14.50;10.30;;;7.20;99.90;;;;;;5000722;28;20186;-95
2023/10/19 01:43:34;;;;;;;14.00;10.33;;;7.20;99.90;;;;;;5000657;28;20245;-94
2023/10/19 01:46:23;;;;;;;12.20;9.97;;;7.30;99.90;;;;;;5001023;28;20183;-94
2023/10/19 01:48:54;;;;;;;15.97;11.27;;;7.30;99.90;;;;;;5000881;28;20175;-96
2023/10/19 01:51:20;;;;;;;17.57;10.83;;;7.20;99.90;;;;;;5000792;28;20175;-92
2023/10/19 01:53:47;;;;;;;16.80;11.10;;;7.20;99.90;;;;;;5017700;28;20175;-92
2023/10/19 01:56:18;;;;;;;13.70;10.73;;;7.20;99.90;;;;;;5000375;28;20222;-93
2023/10/19 01:58:49;;;;;;;18.43;11.37;;;7.20;99.90;;;;;;5000403;28;20179;-90
2023/10/19 02:03:43;;;;;;;14.43;11.13;;;7.20;99.90;;;;;;5017760;28;20210;-92
2023/10/19 02:08:50;;;;;;;15.30;11.27;;;7.20;99.90;;;;;;5017462;28;20162;-90
2023/10/19 02:11:23;;;;;;;17.77;11.87;;;7.20;99.90;;;;;;5000027;28;20213;-90
2023/10/19 02:13:51;;;;;;;15.63;11.03;;;7.20;99.90;;;;;;4999993;28;20218;-89
2023/10/19 02:16:32;;;;;;;17.13;11.93;;;7.20;99.90;;;;;;5000168;28;20175;-91
2023/10/19 02:18:58;;;;;;;14.37;11.73;;;7.20;99.90;;;;;;4999918;28;20187;-89
2023/10/19 02:21:30;;;;;;;16.60;12.40;;;7.20;99.90;;;;;;4999018;28;20175;-90
2023/10/19 02:23:57;;;;;;;14.17;11.73;;;7.20;99.90;;;;;;5015695;28;20589;-88
2023/10/19 02:26:27;;;;;;;22.40;12.30;;;7.20;99.90;;;;;;5000171;28;20183;-93
2023/10/19 02:28:53;;;;;;;15.97;12.20;;;7.10;99.90;;;;;;4999836;28;20182;-90
2023/10/19 02:31:24;;;;;;;20.13;12.70;;;7.10;99.90;;;;;;4999846;28;20183;-89
2023/10/19 02:33:52;;;;;;;17.73;12.70;;;7.10;99.90;;;;;;4999876;28;20172;-92
2023/10/19 02:36:21;;;;;;;16.80;12.40;;;7.10;99.90;;;;;;4999514;28;20229;-90
2023/10/19 02:38:50;;;;;;;17.27;12.90;;;7.10;99.90;;;;;;4999534;28;20219;-89
2023/10/19 02:41:17;;;;;;;17.87;12.97;;;7.00;99.90;;;;;;4999568;28;20175;-88
2023/10/19 02:43:49;;;;;;;18.67;12.80;;;7.00;99.90;;;;;;4999495;28;20265;-91
2023/10/19 02:46:17;;;;;;;20.90;13.37;;;7.00;99.90;;;;;;4999580;28;20190;-90
2023/10/19 02:48:49;;;;;;;18.23;12.67;;;7.00;99.90;;;;;;5017112;28;20246;-90
2023/10/19 02:51:15;;;;;;;17.87;12.93;;;7.00;99.90;;;;;;4999615;28;20614;-87
2023/10/19 02:53:42;;;;;;;19.47;12.87;;;7.00;99.90;;;;;;4999037;28;20194;-87
2023/10/19 02:56:23;;;;;;;18.83;13.43;;;7.00;99.90;;;;;;4999287;28;20193;-86
2023/10/19 02:58:50;;;;;;;20.27;13.30;;;6.90;99.90;;;;;;4999382;28;20194;-90
2023/10/19 03:01:24;;;;;;;20.20;13.50;;;6.90;99.90;;;;;;4999265;28;20187;-86
2023/10/19 03:03:53;;;;;;;18.70;13.47;;;6.90;99.90;;;;;;4999151;28;20213;-88
2023/10/19 03:06:22;;;;;;;17.70;13.97;;;6.90;99.90;;;;;;4999438;28;20252;-87
2023/10/19 03:08:52;;;;;;;17.70;13.10;;;6.90;99.90;;;;;;4998977;28;20168;-87
2023/10/19 03:11:19;;;;;;;20.63;13.97;;;6.90;99.90;;;;;;4999084;28;20167;-87
2023/10/19 03:13:44;;;;;;;19.43;14.00;;;6.80;99.90;;;;;;4998899;28;20187;-87
2023/10/19 03:16:23;;;;;;;20.00;14.67;;;6.80;99.90;;;;;;4998966;28;20241;-86
2023/10/19 03:18:49;;;;;;;21.53;14.37;;;6.80;99.90;;;;;;4998984;28;20163;-86
2023/10/19 03:21:16;;;;;;;21.27;14.70;;;6.80;99.90;;;;;;5016038;28;20270;-88
2023/10/19 03:23:42;;;;;;;16.87;13.80;;;6.80;99.90;;;;;;4998265;28;20230;-88
2023/10/19 03:28:54;;;;;;;21.20;14.73;;;6.80;99.90;;;;;;5016482;28;20529;-87
2023/10/19 03:31:25;;;;;;;22.43;14.83;;;6.80;99.90;;;;;;4998810;28;20171;-89
2023/10/19 03:33:54;;;;;;;19.83;14.67;;;6.80;99.90;;;;;;4998651;28;20203;-87
2023/10/19 03:36:29;;;;;;;19.50;15.47;;;6.80;99.90;;;;;;4998736;28;20180;-87
2023/10/19 03:38:56;;;;;;;23.53;14.83;;;6.80;99.90;;;;;;4998401;28;20667;-87
2023/10/19 03:41:21;;;;;;;17.97;14.40;;;6.80;99.90;;;;;;4998752;28;20187;-87
2023/10/19 03:43:52;;;;;;;20.37;15.20;;;6.80;99.90;;;;;;5015827;28;20210;-86
2023/10/19 03:46:52;;;;;;;22.07;15.03;;;6.80;99.90;;;;;;5014785;28;20530;-87
2023/10/19 03:49:10;;;;;;;19.83;15.27;;;6.80;99.90;;;;;;5015362;28;20268;-88
2023/10/19 03:51:58;;;;;;;20.63;14.87;;;6.80;99.90;;;;;;4998544;28;20179;-88
2023/10/19 03:54:24;;;;;;;21.03;14.83;;;6.80;99.90;;;;;;4978876;28;20184;-88
2023/10/19 03:57:06;;;;;;;21.83;14.53;;;6.80;99.90;;;;;;4978849;28;20199;-87
2023/10/19 03:59:33;;;;;;;19.37;14.50;;;6.80;99.90;;;;;;4978807;28;20178;-88
2023/10/19 04:02:00;;;;;;;21.80;15.63;;;6.80;99.90;;;;;;4978914;28;20275;-88
2023/10/19 04:04:26;;;;;;;20.03;15.27;;;6.80;99.90;;;;;;4978417;28;20239;-89
2023/10/19 04:07:13;;;;;;;22.93;15.27;;;6.90;99.90;;;;;;4978786;28;20180;-94
2023/10/19 04:09:57;;;;;;;22.33;14.63;;;6.90;99.90;;;;;;4978491;28;20172;-88
2023/10/19 04:12:28;;;;;;;19.57;14.37;;;6.90;99.90;;;;;;4978779;28;20207;-87
2023/10/19 04:14:56;;;;;;;22.17;15.00;;;6.90;99.90;;;;;;4978796;28;20362;-88
2023/10/19 04:17:23;;;;;;;21.87;14.97;;;6.90;99.90;;;;;;4995908;28;20174;-88
2023/10/19 04:19:51;;;;;;;20.20;14.80;;;6.90;99.90;;;;;;4978556;28;20207;-89
2023/10/19 04:22:25;;;;;;;22.10;15.03;;;6.90;99.90;;;;;;4980080;28;20373;-87
2023/10/19 04:24:52;;;;;;;22.40;15.03;;;6.90;99.90;;;;;;4994484;28;20207;-89
2023/10/19 04:27:26;;;;;;;19.67;15.67;;;6.90;99.90;;;;;;4994826;28;20187;-89
2023/10/19 04:29:52;;;;;;;24.70;16.00;;;6.90;99.90;;;;;;4994845;28;20175;-91
2023/10/19 04:32:25;;;;;;;18.33;14.70;;;6.90;99.90;;;;;;4994361;28;20180;-89
2023/10/19 04:34:52;;;;;;;19.33;14.67;;;6.90;99.90;;;;;;4994718;28;20570;-89
2023/10/19 04:37:23;;;;;;;20.07;15.80;;;6.90;99.90;;;;;;4994735;28;20180;-89
2023/10/19 04:39:49;;;;;;;23.10;15.47;;;6.90;99.90;;;;;;4994680;28;20611;-88
2023/10/19 04:42:15;;;;;;;21.70;15.27;;;6.90;99.90;;;;;;4994381;28;20311;-91
2023/10/19 04:44:41;;;;;;;20.90;15.37;;;6.90;99.90;;;;;;4996305;28;20234;-91
2023/10/19 04:47:07;;;;;;;20.43;14.73;;;7.00;99.90;;;;;;4999616;28;20611;-90
2023/10/19 04:49:32;;;;;;;21.10;15.80;;;6.90;99.90;;;;;;4987265;28;20216;-88
2023/10/19 04:51:58;;;;;;;20.10;14.87;;;6.90;99.90;;;;;;4981590;28;20189;-89
2023/10/19 04:54:24;;;;;;;21.93;15.40;;;6.90;99.90;;;;;;4998054;28;20239;-92
2023/10/19 04:56:55;;;;;;;17.77;14.57;;;6.90;99.90;;;;;;4998267;28;20210;-90
2023/10/19 04:59:21;;;;;;;24.57;16.43;;;6.90;99.90;;;;;;4998572;28;20241;-86
2023/10/19 05:01:47;;;;;;;26.47;18.23;;;6.90;99.90;;;;;;4998516;28;20673;-89
2023/10/19 05:04:12;;;;;;;21.77;17.47;;;6.90;99.90;;;;;;4983534;28;20219;-90
2023/10/19 05:06:43;;;;;;;23.57;17.57;;;6.90;99.90;;;;;;4994892;28;20304;-89
2023/10/19 05:09:09;;;;;;;22.70;16.83;;;6.90;99.90;;;;;;4978496;28;20650;-89
2023/10/19 05:11:35;;;;;;;21.87;16.43;;;6.90;99.90;;;;;;4978628;28;20185;-91
2023/10/19 05:14:01;;;;;;;20.80;15.80;;;6.90;99.90;;;;;;4978615;28;20190;-91
2023/10/19 05:16:30;;;;;;;27.00;18.27;;;6.90;99.90;;;;;;4978577;28;20522;-90
2023/10/19 05:18:56;;;;;;;25.03;16.03;;;6.80;99.90;;;;;;4978865;28;20177;-91
2023/10/19 05:21:22;;;;;;;23.10;15.70;;;6.90;99.90;;;;;;4978781;28;20191;-89
2023/10/19 05:23:47;;;;;;;22.20;15.77;;;6.80;99.90;;;;;;4995703;28;20239;-88
2023/10/19 05:26:14;;;;;;;20.53;15.27;;;6.80;99.90;;;;;;4997986;28;20187;-90
2023/10/19 05:28:42;;;;;;;19.00;15.03;;;6.80;99.90;;;;;;4998230;28;20207;-89
2023/10/19 05:31:08;;;;;;;19.07;14.77;;;6.80;99.90;;;;;;4998079;28;20234;-89
2023/10/19 05:33:34;;;;;;;21.40;15.53;;;6.80;99.90;;;;;;4997920;28;20517;-90
2023/10/19 05:36:05;;;;;;;20.80;15.37;;;6.80;99.90;;;;;;4997944;28;20244;-91
2023/10/19 05:38:32;;;;;;;19.33;14.37;;;6.80;99.90;;;;;;4997881;28;20172;-90
2023/10/19 05:40:59;;;;;;;20.60;15.17;;;6.80;99.90;;;;;;4997841;28;20184;-88
2023/10/19 05:43:25;;;;;;;19.83;14.37;;;6.80;99.90;;;;;;4997591;28;20184;-90
2023/10/19 05:46:05;;;;;;;20.73;15.43;;;6.80;99.90;;;;;;4997091;28;20192;-91
2023/10/19 05:48:31;;;;;;;21.27;14.37;;;6.80;99.90;;;;;;4998782;28;20172;-88
2023/10/19 05:50:57;;;;;;;20.63;15.10;;;6.80;99.90;;;;;;4997495;28;20190;-87
2023/10/19 05:53:23;;;;;;;21.40;15.43;;;6.80;99.90;;;;;;5013575;28;20176;-89
2023/10/19 05:56:21;;;;;;;21.80;15.50;;;6.70;99.90;;;;;;5012407;28;20183;-89
2023/10/19 05:58:50;;;;;;;21.00;15.97;;;6.80;99.90;;;;;;4980858;28;20185;-89
2023/10/19 06:01:17;;;;;;;21.37;15.83;;;6.80;99.90;;;;;;4994818;28;20181;-89
2023/10/19 06:03:43;;;;;;;23.20;17.17;;;6.70;99.90;;;;;;4994042;28;20212;-89
2023/10/19 06:06:16;;;;;;;21.07;16.87;;;6.70;99.90;;;;;;4993993;28;20176;-88
2023/10/19 06:08:42;;;;;;;23.77;16.77;;;6.80;99.90;;;;;;4994196;28;20173;-88
2023/10/19 06:11:07;;;;;;;24.20;16.30;;;6.80;99.90;;;;;;4993999;28;20179;-91
2023/10/19 06:13:33;;;;;;;22.07;16.07;;;6.80;99.90;;;;;;4993625;28;20189;-91
2023/10/19 06:16:00;;;;;;;21.30;15.60;;;6.80;99.90;;;;;;4994586;28;20177;-91
2023/10/19 06:18:25;;;;;;;21.17;16.17;;;6.80;99.90;;;;;;4993822;28;20176;-87
2023/10/19 06:20:54;;;;;;;20.57;16.27;;;6.70;99.90;;;;;;4993799;28;20173;-87
2023/10/19 06:23:20;;;;;;;21.23;16.17;;;6.70;99.90;;;;;;4993634;28;20239;-86
2023/10/19 06:25:46;;;;;;;22.33;16.97;;;6.70;99.90;;;;;;4993604;28;20212;-88
2023/10/19 06:28:13;;;;;;;20.63;16.20;;;6.70;99.90;;;;;;5005137;28;20251;-87
2023/10/19 06:30:40;;;;;;;21.60;16.50;;;6.70;99.90;;;;;;5013086;28;20179;-86
2023/10/19 06:33:06;;;;;;;20.57;15.27;;;6.70;99.90;;;;;;5013065;28;20175;-86
2023/10/19 06:35:33;;;;;;;21.63;16.27;;;6.70;99.90;;;;;;4997841;28;20172;-89
2023/10/19 06:38:05;;;;;;;23.80;17.10;;;6.70;99.90;;;;;;5012879;28;20187;-88
2023/10/19 06:40:33;;;;;;;18.63;15.80;;;6.70;99.90;;;;;;5012795;28;20173;-90
2023/10/19 06:43:00;;;;;;;23.93;15.60;;;6.70;99.90;;;;;;5012556;28;20196;-88
2023/10/19 06:45:26;;;;;;;24.47;15.97;;;6.80;99.90;;;;;;5012568;28;20238;-89
2023/10/19 06:47:54;;;;;;;21.37;15.43;;;6.80;99.90;;;;;;5012663;28;20179;-90
2023/10/19 06:50:22;;;;;;;25.27;16.30;;;6.70;99.90;;;;;;5012857;28;20184;-87
2023/10/19 06:52:48;;;;;;;23.63;16.37;;;6.80;99.90;;;;;;5012564;28;20563;-87
2023/10/19 06:55:19;;;;;;;25.03;15.97;;;6.70;99.90;;;;;;5012789;28;20206;-85
2023/10/19 06:58:01;;;;;;;20.80;15.77;;;6.80;99.90;;;;;;5012293;28;20592;-86
2023/10/19 07:00:26;;;;;;;22.57;16.67;;;6.80;99.90;;;;;;5012477;28;20200;-87
2023/10/19 07:02:55;;;;;;;19.83;15.70;;;6.80;99.90;;;;;;5012433;28;20214;-85
2023/10/19 07:05:25;;;;;;;19.80;14.83;;;6.80;99.90;;;;;;4996067;28;20211;-85
2023/10/19 07:07:54;;;;;;;21.30;15.90;;;6.80;99.90;;;;;;5012020;28;20180;-86
2023/10/19 07:10:20;;;;;;;22.10;14.90;;;6.80;99.90;;;;;;4995868;28;20189;-86
2023/10/19 07:12:48;;;;;;;19.97;14.80;;;6.80;99.90;;;;;;4997036;28;20183;-85
2023/10/19 07:15:15;;;;;;;19.23;14.90;;;6.80;99.90;;;;;;4995916;28;20180;-86
2023/10/19 07:17:47;;;;;;;20.10;15.17;;;6.80;99.90;;;;;;4995872;28;20190;-85
2023/10/19 07:20:35;;;;;;;18.03;13.37;;;6.80;99.90;;;;;;4995792;28;20173;-88
2023/10/19 07:23:19;;;;;;;19.40;14.40;;;6.80;99.90;;;;;;4995518;28;20223;-85
2023/10/19 07:25:47;;;;;;;15.70;13.40;;;6.80;99.90;;;;;;4995598;28;20219;-89
2023/10/19 07:28:15;;;;;;;16.27;13.57;;;6.80;99.90;;;;;;4995301;28;20180;-86
2023/10/19 07:30:42;;;;;;;17.80;13.33;;;6.80;99.90;;;;;;4996684;28;20260;-88
2023/10/19 07:33:09;;;;;;;15.93;13.10;;;6.90;99.90;;;;;;4995569;28;20190;-91
2023/10/19 07:35:39;;;;;;;19.67;12.77;;;6.80;99.90;;;;;;4995514;28;20188;-87
2023/10/19 07:38:28;;;;;;;15.50;13.17;;;6.90;99.90;;;;;;4996552;28;20527;-88
2023/10/19 07:40:54;;;;;;;17.60;12.83;;;6.90;99.90;;;;;;4995515;28;20259;-89
2023/10/19 07:43:20;;;;;;;16.10;13.03;;;6.90;99.90;;;;;;5011638;28;20593;-90
2023/10/19 07:45:48;;;;;;;14.70;12.40;;;6.90;99.90;;;;;;4995271;28;20231;-91
2023/10/19 07:48:16;;;;;;;78.23;18.97;;;6.90;99.90;;;;;;4995319;28;20179;-89
2023/10/19 07:50:43;;;;;;;36.73;14.43;;;6.90;99.90;;;;;;4995380;28;20184;-90
2023/10/19 07:53:09;;;;;;;28.47;13.30;;;6.90;99.90;;;;;;4995801;28;20187;-87
2023/10/19 07:55:35;;;;;;;37.03;13.63;;;7.00;99.90;;;;;;4995153;28;20191;-87
2023/10/19 07:58:06;;;;;;;38.77;13.73;;;7.00;99.90;;;;;;4994919;28;20527;-86
2023/10/19 08:00:33;;;;;;;17.10;11.23;;;7.00;99.90;;;;;;5011637;28;20270;-85
2023/10/19 08:02:59;;;;;;;51.47;14.13;;;7.00;99.90;;;;;;4995191;28;20678;-86
2023/10/19 08:05:26;;;;;;;46.07;13.83;;;7.10;99.90;;;;;;4995304;28;20223;-87
2023/10/19 08:07:52;;;;;;;34.40;12.43;;;7.10;99.90;;;;;;4995306;28;20180;-88
2023/10/19 08:10:19;;;;;;;33.33;13.37;;;7.10;99.90;;;;;;4995245;28;20229;-89
2023/10/19 08:12:47;;;;;;;58.50;16.47;;;7.10;99.90;;;;;;4995753;28;20172;-86
2023/10/19 08:15:15;;;;;;;57.00;17.00;;;7.10;99.90;;;;;;4995051;28;20627;-88
2023/10/19 08:17:51;;;;;;;18.87;14.23;;;7.10;99.90;;;;;;4995044;28;20184;-88
2023/10/19 08:20:22;;;;;;;17.83;12.50;;;7.10;99.90;;;;;;4994116;28;20183;-86
2023/10/19 08:22:53;;;;;;;14.70;11.77;;;7.10;99.90;;;;;;4994597;28;20227;-88
2023/10/19 08:25:19;;;;;;;16.10;11.73;;;7.10;99.90;;;;;;4994817;28;20241;-86
2023/10/19 08:27:47;;;;;;;18.90;12.50;;;7.20;99.90;;;;;;4994655;28;20188;-86
2023/10/19 08:30:13;;;;;;;15.87;12.73;;;7.20;99.90;;;;;;4994852;28;20183;-88
2023/10/19 08:32:41;;;;;;;17.27;11.73;;;7.20;99.90;;;;;;4994539;28;20183;-87
2023/10/19 08:35:11;;;;;;;16.23;12.30;;;7.20;99.90;;;;;;4994783;28;20226;-88
2023/10/19 08:37:39;;;;;;;17.60;13.20;;;7.20;99.90;;;;;;4994942;28;20184;-86
2023/10/19 08:40:15;;;;;;;14.10;11.93;;;7.20;99.90;;;;;;4994780;28;20215;-87
2023/10/19 08:42:45;;;;;;;33.10;14.47;;;7.30;99.90;;;;;;4995756;28;20164;-87
2023/10/19 08:45:16;;;;;;;35.93;15.33;;;7.30;99.90;;;;;;4994370;28;20222;-87
2023/10/19 08:48:04;;;;;;;46.43;16.50;;;7.30;99.90;;;;;;4994769;28;20226;-85
2023/10/19 08:50:31;;;;;;;71.27;17.53;;;7.30;99.90;;;;;;5011128;28;20180;-86
2023/10/19 08:52:59;;;;;;;36.57;13.53;;;7.30;99.90;;;;;;5010999;28;20192;-86
2023/10/19 08:55:25;;;;;;;32.50;14.47;;;7.30;99.90;;;;;;4994709;28;20266;-85
2023/10/19 08:57:52;;;;;;;48.13;16.27;;;7.40;99.90;;;;;;4995847;28;20187;-86
2023/10/19 09:00:19;;;;;;;16.97;12.27;;;7.40;99.90;;;;;;4995701;28;20168;-86
2023/10/19 09:02:46;;;;;;;35.93;14.67;;;7.40;99.90;;;;;;4995522;28;20172;-85
2023/10/19 09:05:25;;;;;;;15.20;12.03;;;7.40;99.90;;;;;;4995456;28;20226;-86
2023/10/19 09:07:56;;;;;;;15.07;11.00;;;7.50;99.90;;;;;;4994467;28;20196;-86
2023/10/19 09:10:28;;;;;;;14.63;11.37;;;7.50;99.90;;;;;;4994525;28;20207;-85
2023/10/19 09:13:04;;;;;;;15.33;12.37;;;7.50;99.90;;;;;;4994679;28;20184;-85
2023/10/19 09:15:32;;;;;;;10.87;9.60;;;7.50;99.90;;;;;;4995838;28;20634;-86
2023/10/19 09:18:20;;;;;;;21.67;11.67;;;7.50;99.90;;;;;;4993314;28;20223;-89
2023/10/19 09:21:07;;;;;;;27.40;14.00;;;7.50;99.90;;;;;;4994429;28;20174;-86
2023/10/19 09:23:33;;;;;;;25.50;12.90;;;7.50;99.90;;;;;;4993246;28;20322;-88
2023/10/19 09:26:03;;;;;;;25.87;14.00;;;7.50;99.90;;;;;;4994278;28;20184;-86
2023/10/19 09:28:37;;;;;;;31.83;12.57;;;7.50;99.90;;;;;;4994280;28;20295;-87
2023/10/19 09:31:04;;;;;;;50.23;14.17;;;7.50;99.90;;;;;;4996243;28;20184;-87
2023/10/19 09:33:33;;;;;;;39.27;13.03;;;7.60;99.90;;;;;;4997648;28;20175;-87
2023/10/19 09:36:01;;;;;;;26.87;11.70;;;7.60;99.90;;;;;;4998817;28;20206;-85
2023/10/19 09:38:32;;;;;;;16.00;10.67;;;7.60;99.90;;;;;;4997429;28;20210;-86
2023/10/19 09:41:00;;;;;;;14.30;10.47;;;7.50;99.90;;;;;;4997852;28;20195;-87
2023/10/19 09:43:39;;;;;;;12.07;9.67;;;7.50;99.90;;;;;;4997885;28;20195;-86
2023/10/19 09:46:11;;;;;;;16.97;11.60;;;7.50;99.90;;;;;;4999147;28;20237;-86
2023/10/19 09:48:45;;;;;;;13.37;11.00;;;7.50;99.90;;;;;;4997516;28;20179;-86
2023/10/19 09:51:12;;;;;;;11.27;9.23;;;7.60;99.90;;;;;;4997458;28;20256;-86
2023/10/19 09:53:39;;;;;;;11.93;10.33;;;7.60;99.90;;;;;;4997175;28;20258;-85
2023/10/19 09:56:13;;;;;;;12.93;10.33;;;7.60;99.90;;;;;;4997549;28;20523;-85
2023/10/19 09:58:48;;;;;;;14.37;9.73;;;7.60;99.90;;;;;;4997461;28;20168;-86
2023/10/19 10:01:15;;;;;;;12.53;10.17;;;7.70;99.90;;;;;;4998332;28;20168;-86
2023/10/19 10:03:48;;;;;;;30.43;12.03;;;7.70;99.90;;;;;;4997083;28;20226;-87
2023/10/19 10:06:50;;;;;;;42.63;12.87;;;7.70;99.90;;;;;;4997264;28;20203;-88
2023/10/19 10:09:25;;;;;;;20.17;11.43;;;7.70;99.90;;;;;;4996806;28;20175;-86
2023/10/19 10:11:55;;;;;;;13.60;10.80;;;7.70;99.90;;;;;;4997311;28;20199;-86
2023/10/19 10:14:26;;;;;;;21.47;11.53;;;7.80;99.90;;;;;;4997005;28;20183;-86
2023/10/19 10:17:09;;;;;;;49.13;14.13;;;7.70;99.90;;;;;;4997013;28;20270;-87
2023/10/19 10:19:36;;;;;;;14.27;11.27;;;7.70;99.90;;;;;;4997128;28;20182;-86
2023/10/19 10:22:14;;;;;;;12.40;10.93;;;7.80;99.90;;;;;;4996795;28;20228;-88
2023/10/19 10:24:43;;;;;;;37.27;13.20;;;7.80;99.90;;;;;;4978267;28;20239;-87
2023/10/19 10:27:10;;;;;;;18.93;11.20;;;7.80;99.90;;;;;;4977302;28;20181;-87
2023/10/19 10:30:06;;;;;;;14.37;11.57;;;7.80;99.90;;;;;;4977432;28;20627;-87
2023/10/19 10:32:59;;;;;;;27.70;12.77;;;7.80;99.90;;;;;;4977330;28;20611;-87
2023/10/19 10:35:38;;;;;;;16.13;11.67;;;7.80;99.90;;;;;;4977293;28;20698;-86
2023/10/19 10:38:09;;;;;;;22.87;12.67;;;7.80;99.90;;;;;;4993276;28;20176;-86
2023/10/19 10:40:44;;;;;;;32.00;13.97;;;7.80;99.90;;;;;;4977267;28;20181;-87
2023/10/19 10:43:13;;;;;;;16.93;12.93;;;7.80;99.90;;;;;;4976468;28;20645;-85
2023/10/19 10:45:39;;;;;;;16.70;13.33;;;7.80;99.90;;;;;;4977073;28;20228;-88
2023/10/19 10:48:11;;;;;;;18.43;13.83;;;7.90;99.90;;;;;;4976942;28;20172;-87
2023/10/19 10:50:41;;;;;;;16.47;13.90;;;7.90;99.90;;;;;;4977502;28;20299;-87
2023/10/19 10:53:13;;;;;;;18.53;13.83;;;7.90;99.90;;;;;;4984764;28;20184;-86
2023/10/19 10:55:39;;;;;;;19.97;14.03;;;7.90;99.90;;;;;;4996301;28;20172;-88
2023/10/19 10:58:05;;;;;;;76.03;17.73;;;7.90;99.90;;;;;;4996243;28;20187;-89
2023/10/19 11:00:34;;;;;;;23.27;14.43;;;7.90;99.90;;;;;;4996681;28;20180;-87
2023/10/19 11:03:03;;;;;;;19.37;14.33;;;7.90;99.90;;;;;;4996041;28;20251;-87
2023/10/19 11:05:30;;;;;;;18.93;15.23;;;7.90;99.90;;;;;;4996093;28;20604;-87
2023/10/19 11:08:13;;;;;;;25.93;16.23;;;7.90;99.90;;;;;;4995760;28;20187;-87
2023/10/19 11:10:42;;;;;;;22.80;15.03;;;7.90;99.90;;;;;;4997231;28;20175;-89
2023/10/19 11:13:10;;;;;;;35.63;15.83;;;7.90;99.90;;;;;;4995955;28;20176;-89
2023/10/19 11:15:37;;;;;;;36.70;16.87;;;7.90;99.90;;;;;;4996055;28;20191;-88
2023/10/19 11:18:04;;;;;;;22.57;15.93;;;7.80;99.90;;;;;;4995802;28;20246;-87
2023/10/19 11:20:31;;;;;;;38.33;16.93;;;7.90;99.90;;;;;;4995899;28;20623;-89
2023/10/19 11:23:00;;;;;;;28.73;16.87;;;7.90;99.90;;;;;;4995359;28;20263;-93
2023/10/19 11:25:31;;;;;;;30.30;17.27;;;7.80;99.90;;;;;;4995841;28;20212;-87
2023/10/19 11:27:58;;;;;;;26.43;16.60;;;7.80;99.90;;;;;;4995954;28;20557;-86
2023/10/19 11:30:33;;;;;;;22.67;16.00;;;7.80;99.90;;;;;;4995609;28;20184;-88
2023/10/19 11:33:00;;;;;;;19.13;15.80;;;7.80;99.90;;;;;;4995628;28;20606;-88
2023/10/19 11:35:29;;;;;;;23.97;16.67;;;7.90;99.90;;;;;;4996776;28;20552;-85
2023/10/19 11:37:58;;;;;;;25.13;17.80;;;7.80;99.90;;;;;;4995734;28;20203;-87
2023/10/19 11:40:26;;;;;;;21.17;16.37;;;7.80;99.90;;;;;;4995570;28;20195;-88
2023/10/19 11:42:56;;;;;;;23.27;16.60;;;7.80;99.90;;;;;;4995973;28;20180;-87
2023/10/19 11:45:25;;;;;;;23.97;17.43;;;7.80;99.90;;;;;;4995467;28;20204;-89
2023/10/19 11:47:52;;;;;;;26.27;18.93;;;7.80;99.90;;;;;;4995322;28;20667;-87
2023/10/19 11:50:18;;;;;;;22.57;18.03;;;7.90;99.90;;;;;;4995448;28;20274;-88
2023/10/19 11:52:45;;;;;;;25.20;19.03;;;7.90;99.90;;;;;;4995180;28;20242;-91
2023/10/19 11:55:15;;;;;;;26.93;19.93;;;7.90;99.90;;;;;;4995088;28;20207;-87
2023/10/19 11:57:44;;;;;;;28.70;19.30;;;7.90;99.90;;;;;;4995332;28;20179;-86
2023/10/19 12:00:14;;;;;;;29.07;22.03;;;7.90;99.90;;;;;;4995205;28;20179;-91
2023/10/19 12:02:43;;;;;;;30.10;21.80;;;8.00;99.90;;;;;;4995095;28;20603;-90
2023/10/19 12:05:10;;;;;;;30.77;22.17;;;8.00;99.90;;;;;;4996136;28;20286;-87
2023/10/19 12:07:39;;;;;;;32.63;22.87;;;8.00;99.90;;;;;;4995134;28;20694;-89
2023/10/19 12:10:12;;;;;;;30.20;20.90;;;8.10;99.90;;;;;;4994997;28;20186;-88
2023/10/19 12:12:38;;;;;;;31.97;21.93;;;8.10;99.90;;;;;;4995076;28;20172;-89
2023/10/19 12:15:07;;;;;;;31.73;22.27;;;8.00;99.90;;;;;;4995173;28;20199;-88
2023/10/19 12:17:33;;;;;;;29.03;21.53;;;8.00;99.90;;;;;;4995366;28;20180;-89
2023/10/19 12:19:59;;;;;;;29.37;21.03;;;8.00;99.90;;;;;;4994981;28;20180;-88
2023/10/19 12:22:32;;;;;;;30.37;22.20;;;8.00;99.90;;;;;;4994669;28;20701;-89
2023/10/19 12:24:59;;;;;;;33.63;22.33;;;7.90;99.90;;;;;;4994624;28;20212;-88
2023/10/19 12:27:25;;;;;;;28.53;21.20;;;7.90;99.90;;;;;;4994990;28;20172;-90
2023/10/19 12:29:58;;;;;;;29.40;21.73;;;7.90;99.90;;;;;;5011786;28;20518;-87
2023/10/19 12:32:25;;;;;;;33.77;23.50;;;7.90;99.90;;;;;;5014483;28;20178;-89
2023/10/19 12:34:57;;;;;;;30.97;22.87;;;7.90;99.90;;;;;;5015627;28;20179;-87
2023/10/19 12:37:24;;;;;;;29.27;21.07;;;7.90;99.90;;;;;;5014625;28;20265;-88
2023/10/19 12:39:52;;;;;;;31.77;22.93;;;7.90;99.90;;;;;;5031089;28;20341;-88
2023/10/19 12:42:17;;;;;;;34.27;22.97;;;7.80;99.90;;;;;;5014395;28;20331;-88
2023/10/19 12:44:43;;;;;;;30.73;22.37;;;7.80;99.90;;;;;;4998615;28;20315;-90
2023/10/19 12:47:14;;;;;;;33.27;22.67;;;7.80;99.90;;;;;;4994780;28;20180;-90
2023/10/19 12:49:40;;;;;;;32.27;22.70;;;7.90;99.90;;;;;;4993690;28;20188;-88
2023/10/19 12:52:10;;;;;;;30.73;22.50;;;7.80;99.90;;;;;;4994584;28;20176;-90
2023/10/19 12:54:37;;;;;;;32.27;22.57;;;7.80;99.90;;;;;;4993944;28;20200;-92
2023/10/19 12:57:09;;;;;;;33.83;22.87;;;7.80;99.90;;;;;;4994522;28;20214;-91
2023/10/19 12:59:39;;;;;;;39.23;26.57;;;7.80;99.90;;;;;;4995175;28;20190;-89
2023/10/19 13:02:08;;;;;;;39.20;27.00;;;7.80;99.90;;;;;;4994666;28;20180;-88
2023/10/19 13:04:34;;;;;;;40.67;25.10;;;7.80;99.90;;;;;;4994601;28;20258;-89
2023/10/19 13:07:02;;;;;;;38.03;25.63;;;7.70;99.90;;;;;;4998235;28;20230;-89
2023/10/19 13:09:31;;;;;;;38.53;25.73;;;7.80;99.90;;;;;;4997835;28;20179;-89
2023/10/19 13:12:00;;;;;;;36.17;24.40;;;7.80;99.90;;;;;;4998050;28;20187;-87
2023/10/19 13:14:27;;;;;;;32.40;23.40;;;7.80;99.90;;;;;;4998120;28;20180;-88
2023/10/19 13:16:54;;;;;;;37.17;24.20;;;7.80;99.90;;;;;;4998204;28;20207;-90
2023/10/19 13:19:25;;;;;;;37.63;25.13;;;7.70;99.90;;;;;;4998084;28;20207;-88
2023/10/19 13:21:50;;;;;;;36.63;25.00;;;7.80;99.90;;;;;;4999402;28;20172;-88
2023/10/19 13:24:20;;;;;;;36.47;24.07;;;7.80;99.90;;;;;;5001256;28;20253;-90
2023/10/19 13:26:46;;;;;;;34.33;23.63;;;7.70;99.90;;;;;;5001241;28;20273;-88